createdAt,value
2019-03-20T00:00:37.551Z,60.13
2019-03-20T00:01:43.996Z,60.19
2019-03-20T00:02:46.438Z,60.24
2019-03-20T00:03:49.912Z,60.38
2019-03-20T00:04:53.417Z,60.36
2019-03-20T00:05:56.975Z,60.34
2019-03-20T00:07:00.531Z,60.35
2019-03-20T00:08:04.072Z,60.40
2019-03-20T00:09:09.387Z,60.34
2019-03-20T00:10:13.038Z,60.30
2019-03-20T00:11:16.537Z,60.26
2019-03-20T00:12:20.097Z,60.37
2019-03-20T00:13:23.647Z,60.41
2019-03-20T00:14:27.131Z,60.41
2019-03-20T00:15:30.684Z,60.37
2019-03-20T00:16:34.151Z,60.32
2019-03-20T00:17:37.780Z,60.42
2019-03-20T00:18:41.285Z,60.49
2019-03-20T00:19:44.766Z,60.56
2019-03-20T00:20:48.338Z,60.59
2019-03-20T00:21:51.816Z,60.58
2019-03-20T00:22:55.372Z,60.51
2019-03-20T00:23:58.835Z,60.63
2019-03-20T00:25:02.308Z,60.54
2019-03-20T00:26:05.813Z,60.56
2019-03-20T00:27:09.298Z,60.71
2019-03-20T00:28:12.860Z,60.72
2019-03-20T00:29:16.407Z,60.70
2019-03-20T00:30:22.775Z,60.71
2019-03-20T00:31:26.271Z,60.76
2019-03-20T00:32:29.852Z,60.83
2019-03-20T00:33:33.321Z,60.83
2019-03-20T00:34:36.869Z,60.92
2019-03-20T00:35:40.379Z,60.99
2019-03-20T00:36:43.913Z,61.09
2019-03-20T00:37:47.528Z,61.20
2019-03-20T00:38:51.073Z,61.18
2019-03-20T00:39:54.712Z,61.22
2019-03-20T00:40:58.285Z,61.18
2019-03-20T00:42:01.830Z,61.18
2019-03-20T00:43:05.381Z,61.21
2019-03-20T00:44:08.956Z,61.22
2019-03-20T00:45:14.727Z,61.21
2019-03-20T00:46:18.226Z,61.14
2019-03-20T00:47:21.871Z,61.12
2019-03-20T00:48:25.351Z,61.34
2019-03-20T00:49:28.835Z,61.35
2019-03-20T00:50:32.384Z,61.39
2019-03-20T00:51:35.969Z,61.37
2019-03-20T00:52:39.577Z,61.36
2019-03-20T00:53:43.060Z,61.41
2019-03-20T00:54:46.532Z,61.41
2019-03-20T00:55:50.013Z,61.44
2019-03-20T00:56:53.734Z,61.47
2019-03-20T00:57:57.465Z,61.45
2019-03-20T00:59:00.954Z,61.41
2019-03-20T01:00:07.491Z,61.42
2019-03-20T01:01:10.970Z,61.47
2019-03-20T01:02:14.614Z,61.54
2019-03-20T01:03:18.164Z,61.54
2019-03-20T01:04:21.636Z,61.51
2019-03-20T01:05:25.254Z,61.47
2019-03-20T01:06:28.767Z,61.50
2019-03-20T01:07:32.448Z,61.47
2019-03-20T01:08:35.926Z,61.46
2019-03-20T01:09:39.406Z,61.65
2019-03-20T01:10:42.951Z,61.63
2019-03-20T01:11:46.431Z,61.66
2019-03-20T01:12:50.502Z,61.75
2019-03-20T01:13:53.985Z,61.80
2019-03-20T01:14:57.460Z,61.76
2019-03-20T01:16:00.951Z,61.79
2019-03-20T01:17:04.552Z,61.82
2019-03-20T01:18:08.133Z,61.79
2019-03-20T01:19:11.681Z,61.79
2019-03-20T01:20:19.652Z,61.81
2019-03-20T01:21:23.212Z,61.86
2019-03-20T01:22:26.688Z,61.85
2019-03-20T01:23:30.258Z,61.83
2019-03-20T01:24:34.293Z,61.86
2019-03-20T01:25:37.775Z,61.91
2019-03-20T01:26:41.301Z,61.92
2019-03-20T01:27:44.809Z,61.94
2019-03-20T01:28:48.320Z,62.01
2019-03-20T01:29:51.817Z,62.05
2019-03-20T01:30:55.362Z,62.14
2019-03-20T01:31:58.853Z,62.22
2019-03-20T01:33:15.936Z,62.36
2019-03-20T01:34:19.530Z,62.38
2019-03-20T01:35:24.047Z,62.43
2019-03-20T01:36:27.770Z,62.40
2019-03-20T01:37:31.318Z,62.35
2019-03-20T01:38:34.867Z,62.23
2019-03-20T01:39:38.431Z,62.21
2019-03-20T01:40:41.979Z,62.24
2019-03-20T01:41:45.470Z,62.36
2019-03-20T01:42:48.937Z,62.48
2019-03-20T01:43:52.411Z,62.50
2019-03-20T01:44:56.019Z,62.49
2019-03-20T01:45:59.527Z,62.42
2019-03-20T01:47:03.011Z,62.42
2019-03-20T01:48:06.644Z,62.40
2019-03-20T01:49:10.117Z,62.40
2019-03-20T01:50:13.758Z,62.42
2019-03-20T01:51:21.640Z,62.45
2019-03-20T01:52:25.127Z,62.51
2019-03-20T01:53:28.642Z,62.61
2019-03-20T01:54:32.120Z,62.69
2019-03-20T01:55:35.695Z,62.80
2019-03-20T01:56:39.184Z,62.91
2019-03-20T01:57:42.724Z,62.97
2019-03-20T01:58:46.195Z,63.05
2019-03-20T01:59:49.750Z,63.14
2019-03-20T02:00:53.298Z,63.10
2019-03-20T02:01:56.844Z,63.08
2019-03-20T02:03:00.346Z,63.08
2019-03-20T02:04:04.007Z,63.19
2019-03-20T02:05:08.060Z,63.19
2019-03-20T02:06:11.573Z,63.05
2019-03-20T02:07:15.123Z,62.90
2019-03-20T02:08:18.676Z,62.77
2019-03-20T02:09:22.175Z,62.75
2019-03-20T02:10:25.868Z,62.70
2019-03-20T02:11:29.381Z,62.80
2019-03-20T02:12:33.018Z,62.88
2019-03-20T02:13:36.510Z,62.88
2019-03-20T02:14:40.018Z,62.92
2019-03-20T02:15:43.597Z,62.98
2019-03-20T02:16:47.306Z,62.94
2019-03-20T02:17:50.912Z,62.96
2019-03-20T02:18:54.420Z,62.99
2019-03-20T02:19:57.941Z,63.01
2019-03-20T02:21:01.501Z,63.03
2019-03-20T02:22:05.174Z,63.13
2019-03-20T02:23:08.649Z,63.19
2019-03-20T02:24:12.271Z,63.13
2019-03-20T02:25:16.239Z,63.71
2019-03-20T02:26:19.740Z,63.72
2019-03-20T02:27:23.264Z,63.62
2019-03-20T02:28:26.926Z,63.56
2019-03-20T02:29:30.491Z,63.57
2019-03-20T02:30:34.053Z,63.63
2019-03-20T02:31:37.624Z,63.62
2019-03-20T02:32:41.213Z,63.56
2019-03-20T02:33:44.774Z,63.62
2019-03-20T02:34:48.260Z,63.53
2019-03-20T02:35:52.483Z,63.51
2019-03-20T02:36:56.172Z,63.51
2019-03-20T02:37:59.700Z,63.42
2019-03-20T02:39:03.277Z,63.57
2019-03-20T02:40:11.990Z,63.50
2019-03-20T02:41:15.478Z,63.67
2019-03-20T02:42:18.963Z,63.62
2019-03-20T02:43:22.770Z,63.67
2019-03-20T02:44:26.340Z,63.59
2019-03-20T02:45:29.881Z,63.58
2019-03-20T02:46:33.346Z,63.56
2019-03-20T02:47:36.915Z,63.47
2019-03-20T02:48:40.423Z,63.52
2019-03-20T02:49:43.924Z,63.56
2019-03-20T02:50:47.460Z,63.60
2019-03-20T02:51:51.035Z,63.61
2019-03-20T02:52:54.648Z,63.61
2019-03-20T02:53:58.281Z,63.47
2019-03-20T02:55:02.045Z,63.37
2019-03-20T02:56:05.526Z,63.39
2019-03-20T02:57:09.024Z,63.44
2019-03-20T02:58:12.634Z,63.54
2019-03-20T02:59:16.090Z,63.55
2019-03-20T03:00:22.752Z,63.52
2019-03-20T03:01:26.325Z,63.45
2019-03-20T03:02:29.863Z,63.36
2019-03-20T03:03:33.379Z,63.34
2019-03-20T03:04:36.865Z,63.38
2019-03-20T03:05:40.450Z,63.38
2019-03-20T03:06:44.087Z,63.42
2019-03-20T03:07:47.650Z,63.55
2019-03-20T03:08:51.171Z,63.64
2019-03-20T03:09:54.674Z,63.68
2019-03-20T03:10:58.148Z,63.64
2019-03-20T03:12:01.660Z,63.65
2019-03-20T03:13:05.215Z,63.68
2019-03-20T03:14:08.791Z,63.60
2019-03-20T03:15:13.717Z,63.66
2019-03-20T03:16:17.222Z,63.74
2019-03-20T03:17:20.725Z,63.77
2019-03-20T03:18:24.221Z,63.80
2019-03-20T03:19:27.732Z,63.82
2019-03-20T03:20:31.227Z,63.78
2019-03-20T03:21:34.738Z,63.77
2019-03-20T03:22:38.310Z,63.78
2019-03-20T03:23:41.853Z,63.73
2019-03-20T03:24:45.443Z,63.74
2019-03-20T03:25:50.316Z,63.74
2019-03-20T03:26:53.925Z,63.66
2019-03-20T03:27:57.993Z,63.64
2019-03-20T03:29:01.480Z,63.66
2019-03-20T03:30:15.653Z,63.69
2019-03-20T03:31:19.229Z,63.68
2019-03-20T03:32:22.731Z,63.66
2019-03-20T03:33:26.546Z,63.67
2019-03-20T03:34:30.069Z,63.62
2019-03-20T03:35:33.649Z,63.63
2019-03-20T03:36:37.118Z,63.78
2019-03-20T03:37:40.675Z,63.84
2019-03-20T03:38:44.246Z,63.79
2019-03-20T03:39:47.719Z,63.77
2019-03-20T03:40:51.258Z,63.70
2019-03-20T03:41:55.145Z,63.92
2019-03-20T03:42:58.665Z,63.86
2019-03-20T03:44:02.418Z,63.82
2019-03-20T03:45:09.237Z,63.76
2019-03-20T03:46:12.756Z,63.77
2019-03-20T03:47:16.301Z,63.72
2019-03-20T03:48:19.980Z,63.77
2019-03-20T03:49:23.567Z,64.26
2019-03-20T03:50:27.075Z,64.11
2019-03-20T03:51:31.772Z,64.11
2019-03-20T03:52:35.288Z,64.11
2019-03-20T03:53:38.766Z,63.87
2019-03-20T03:54:42.317Z,63.70
2019-03-20T03:55:45.927Z,63.87
2019-03-20T03:56:49.644Z,63.89
2019-03-20T03:57:53.398Z,63.93
2019-03-20T03:58:56.903Z,64.07
2019-03-20T04:00:00.509Z,64.02
2019-03-20T04:01:04.126Z,64.02
2019-03-20T04:02:07.758Z,64.03
2019-03-20T04:03:11.311Z,63.84
2019-03-20T04:04:14.922Z,63.77
2019-03-20T04:05:18.537Z,63.62
2019-03-20T04:06:34.958Z,63.33
2019-03-20T04:07:27.605Z,63.05
2019-03-20T04:08:31.231Z,62.92
2019-03-20T04:09:34.732Z,62.82
2019-03-20T04:10:38.351Z,62.68
2019-03-20T04:11:41.831Z,62.42
2019-03-20T04:12:45.497Z,62.27
2019-03-20T04:13:49.057Z,62.16
2019-03-20T04:14:52.548Z,61.96
2019-03-20T04:15:56.059Z,61.73
2019-03-20T04:16:59.535Z,61.49
2019-03-20T04:18:03.220Z,61.35
2019-03-20T04:19:06.764Z,61.16
2019-03-20T04:20:13.104Z,61.11
2019-03-20T04:21:16.573Z,61.03
2019-03-20T04:22:20.208Z,60.98
2019-03-20T04:23:23.814Z,60.96
2019-03-20T04:24:27.328Z,60.95
2019-03-20T04:25:30.951Z,60.74
2019-03-20T04:26:34.442Z,60.76
2019-03-20T04:27:37.933Z,60.77
2019-03-20T04:28:41.550Z,60.84
2019-03-20T04:29:45.205Z,60.87
2019-03-20T04:30:48.679Z,60.79
2019-03-20T04:31:52.258Z,60.92
2019-03-20T04:32:55.806Z,60.93
2019-03-20T04:33:59.385Z,61.00
2019-03-20T04:35:02.882Z,61.01
2019-03-20T04:36:06.369Z,61.07
2019-03-20T04:37:09.957Z,60.95
2019-03-20T04:38:13.524Z,60.89
2019-03-20T04:39:17.013Z,60.78
2019-03-20T04:40:20.665Z,60.67
2019-03-20T04:41:24.164Z,60.59
2019-03-20T04:42:27.706Z,60.45
2019-03-20T04:43:31.201Z,60.34
2019-03-20T04:44:34.715Z,60.29
2019-03-20T04:45:38.206Z,60.15
2019-03-20T04:46:41.711Z,59.99
2019-03-20T04:47:45.262Z,60.02
2019-03-20T04:48:48.841Z,59.90
2019-03-20T04:49:52.347Z,59.91
2019-03-20T04:50:55.843Z,59.91
2019-03-20T04:51:59.346Z,59.77
2019-03-20T04:53:02.965Z,59.67
2019-03-20T04:54:06.621Z,59.68
2019-03-20T04:55:10.484Z,59.57
2019-03-20T04:56:14.078Z,59.56
2019-03-20T04:57:17.626Z,59.56
2019-03-20T04:58:21.116Z,59.61
2019-03-20T04:59:24.630Z,59.61
2019-03-20T05:00:28.322Z,59.60
2019-03-20T05:01:34.581Z,59.48
2019-03-20T05:02:38.064Z,59.47
2019-03-20T05:03:41.561Z,59.55
2019-03-20T05:04:45.047Z,59.60
2019-03-20T05:05:48.644Z,59.66
2019-03-20T05:06:58.726Z,59.73
2019-03-20T05:07:57.347Z,60.20
2019-03-20T05:09:00.924Z,60.05
2019-03-20T05:10:07.273Z,59.87
2019-03-20T05:11:10.767Z,59.85
2019-03-20T05:12:14.335Z,59.82
2019-03-20T05:13:17.901Z,59.63
2019-03-20T05:14:21.461Z,59.53
2019-03-20T05:15:25.128Z,59.56
2019-03-20T05:16:28.718Z,59.49
2019-03-20T05:17:32.416Z,59.51
2019-03-20T05:18:35.992Z,59.56
2019-03-20T05:19:39.762Z,59.61
2019-03-20T05:20:43.335Z,59.60
2019-03-20T05:21:47.008Z,59.21
2019-03-20T05:22:50.544Z,59.40
2019-03-20T05:23:54.013Z,58.94
2019-03-20T05:24:57.509Z,59.39
2019-03-20T05:26:01.009Z,59.50
2019-03-20T05:27:04.894Z,59.55
2019-03-20T05:28:08.452Z,59.58
2019-03-20T05:29:14.896Z,59.50
2019-03-20T05:30:18.397Z,59.46
2019-03-20T05:31:21.950Z,59.38
2019-03-20T05:32:25.517Z,59.33
2019-03-20T05:33:29.034Z,59.19
2019-03-20T05:34:32.517Z,59.10
2019-03-20T05:35:36.078Z,59.13
2019-03-20T05:36:39.591Z,58.45
2019-03-20T05:37:43.168Z,58.42
2019-03-20T05:38:46.658Z,58.08
2019-03-20T05:39:50.216Z,58.17
2019-03-20T05:40:53.710Z,58.00
2019-03-20T05:41:57.206Z,57.98
2019-03-20T05:43:00.788Z,58.19
2019-03-20T05:44:04.352Z,57.95
2019-03-20T05:45:13.463Z,57.84
2019-03-20T05:46:16.943Z,57.69
2019-03-20T05:47:20.434Z,57.60
2019-03-20T05:48:24.078Z,57.26
2019-03-20T05:49:27.559Z,57.01
2019-03-20T05:50:31.100Z,56.62
2019-03-20T05:51:34.707Z,56.52
2019-03-20T05:52:38.203Z,56.41
2019-03-20T05:53:41.908Z,56.33
2019-03-20T05:54:45.405Z,56.25
2019-03-20T05:55:48.975Z,56.18
2019-03-20T05:56:52.478Z,56.13
2019-03-20T05:57:56.032Z,56.00
2019-03-20T05:58:59.567Z,56.02
2019-03-20T06:00:03.865Z,55.90
2019-03-20T06:01:07.373Z,55.91
2019-03-20T06:02:10.932Z,55.75
2019-03-20T06:03:14.607Z,55.79
2019-03-20T06:04:18.307Z,55.78
2019-03-20T06:05:22.038Z,55.85
2019-03-20T06:06:25.572Z,55.86
2019-03-20T06:07:29.082Z,55.61
2019-03-20T06:08:32.585Z,55.61
2019-03-20T06:09:36.104Z,55.64
2019-03-20T06:10:39.623Z,55.59
2019-03-20T06:11:43.264Z,55.56
2019-03-20T06:12:46.937Z,55.46
2019-03-20T06:13:50.460Z,55.48
2019-03-20T06:14:53.978Z,55.43
2019-03-20T06:15:57.473Z,55.39
2019-03-20T06:17:00.966Z,55.37
2019-03-20T06:18:04.534Z,55.39
2019-03-20T06:19:08.038Z,55.42
2019-03-20T06:20:14.689Z,55.38
2019-03-20T06:21:18.190Z,55.41
2019-03-20T06:22:22.631Z,55.37
2019-03-20T06:23:26.314Z,55.38
2019-03-20T06:24:29.821Z,55.37
2019-03-20T06:25:33.407Z,55.45
2019-03-20T06:26:36.901Z,55.52
2019-03-20T06:27:40.397Z,55.66
2019-03-20T06:28:43.963Z,55.65
2019-03-20T06:29:47.461Z,55.59
2019-03-20T06:30:50.973Z,54.92
2019-03-20T06:31:54.462Z,53.35
2019-03-20T06:32:59.785Z,52.49
2019-03-20T06:34:03.352Z,51.74
2019-03-20T06:35:08.891Z,51.85
2019-03-20T06:36:12.634Z,51.80
2019-03-20T06:37:16.278Z,51.71
2019-03-20T06:38:19.784Z,51.64
2019-03-20T06:39:23.349Z,50.83
2019-03-20T06:40:26.818Z,50.82
2019-03-20T06:41:32.366Z,50.77
2019-03-20T06:42:35.643Z,49.88
2019-03-20T06:43:39.167Z,49.67
2019-03-20T06:44:42.718Z,48.62
2019-03-20T06:45:46.381Z,48.90
2019-03-20T06:46:49.970Z,48.48
2019-03-20T06:47:53.524Z,48.48
2019-03-20T06:48:57.195Z,48.32
2019-03-20T06:50:00.712Z,47.34
2019-03-20T06:51:04.356Z,46.38
2019-03-20T06:52:07.923Z,44.74
2019-03-20T06:53:11.427Z,44.16
2019-03-20T06:54:14.903Z,43.56
2019-03-20T06:55:18.545Z,43.22
2019-03-20T06:56:22.023Z,43.32
2019-03-20T06:57:25.542Z,42.23
2019-03-20T06:58:29.041Z,42.37
2019-03-20T06:59:35.611Z,41.62
2019-03-20T07:00:59.924Z,41.03
2019-03-20T07:02:04.495Z,41.27
2019-03-20T07:03:32.119Z,41.45
2019-03-20T07:05:11.627Z,40.91
2019-03-20T07:06:29.934Z,40.81
2019-03-20T07:07:44.113Z,40.20
2019-03-20T07:08:47.019Z,40.09
2019-03-20T07:10:02.169Z,40.58
2019-03-20T07:11:11.634Z,40.38
2019-03-20T07:12:15.151Z,39.88
2019-03-20T07:13:18.691Z,40.19
2019-03-20T07:14:22.207Z,39.07
2019-03-20T07:15:25.690Z,40.09
2019-03-20T07:16:29.241Z,39.67
2019-03-20T07:17:32.781Z,40.12
2019-03-20T07:18:36.250Z,40.43
2019-03-20T07:19:39.753Z,40.79
2019-03-20T07:20:43.253Z,41.04
2019-03-20T07:21:46.767Z,41.33
2019-03-20T07:22:50.294Z,41.44
2019-03-20T07:23:53.856Z,41.68
2019-03-20T07:24:57.339Z,41.91
2019-03-20T07:26:00.910Z,42.12
2019-03-20T07:27:04.558Z,42.37
2019-03-20T07:28:08.081Z,42.54
2019-03-20T07:29:11.582Z,42.81
2019-03-20T07:30:15.210Z,43.01
2019-03-20T07:31:18.715Z,43.27
2019-03-20T07:32:22.208Z,43.50
2019-03-20T07:33:25.706Z,43.40
2019-03-20T07:34:29.213Z,43.48
2019-03-20T07:35:32.745Z,43.75
2019-03-20T07:36:36.322Z,43.96
2019-03-20T07:37:39.840Z,44.26
2019-03-20T07:38:43.413Z,44.43
2019-03-20T07:39:47.001Z,44.59
2019-03-20T07:40:50.815Z,44.82
2019-03-20T07:41:55.642Z,45.07
2019-03-20T07:43:08.300Z,45.12
2019-03-20T07:44:04.728Z,45.28
2019-03-20T07:45:10.160Z,45.46
2019-03-20T07:46:13.811Z,45.63
2019-03-20T07:47:17.348Z,45.72
2019-03-20T07:48:22.367Z,45.83
2019-03-20T07:49:26.217Z,45.94
2019-03-20T07:50:29.700Z,46.05
2019-03-20T07:51:33.192Z,46.14
2019-03-20T07:52:36.879Z,46.20
2019-03-20T07:53:40.442Z,46.32
2019-03-20T07:54:44.040Z,46.47
2019-03-20T07:55:47.704Z,46.72
2019-03-20T07:56:51.199Z,46.84
2019-03-20T07:57:54.683Z,46.96
2019-03-20T07:58:58.175Z,47.04
2019-03-20T08:00:01.807Z,47.15
2019-03-20T08:01:05.424Z,47.25
2019-03-20T08:02:08.984Z,47.37
2019-03-20T08:03:12.484Z,47.37
2019-03-20T08:04:16.029Z,47.38
2019-03-20T08:05:29.133Z,47.49
2019-03-20T08:06:24.894Z,47.50
2019-03-20T08:07:28.372Z,47.55
2019-03-20T08:08:31.892Z,47.66
2019-03-20T08:09:35.402Z,47.64
2019-03-20T08:10:39.047Z,47.71
2019-03-20T08:11:42.532Z,47.85
2019-03-20T08:12:46.089Z,47.87
2019-03-20T08:13:49.609Z,47.89
2019-03-20T08:14:53.173Z,47.95
2019-03-20T08:15:56.741Z,48.09
2019-03-20T08:17:00.372Z,48.10
2019-03-20T08:18:03.921Z,48.26
2019-03-20T08:19:07.415Z,48.29
2019-03-20T08:20:19.711Z,48.40
2019-03-20T08:21:23.291Z,48.42
2019-03-20T08:22:26.798Z,48.41
2019-03-20T08:23:30.351Z,48.38
2019-03-20T08:24:33.853Z,48.42
2019-03-20T08:25:37.415Z,48.46
2019-03-20T08:26:40.922Z,48.48
2019-03-20T08:27:44.549Z,48.55
2019-03-20T08:28:48.051Z,48.53
2019-03-20T08:29:51.968Z,48.62
2019-03-20T08:30:55.458Z,48.58
2019-03-20T08:31:58.964Z,48.58
2019-03-20T08:33:02.448Z,48.66
2019-03-20T08:34:06.049Z,48.62
2019-03-20T08:35:11.781Z,48.58
2019-03-20T08:36:15.274Z,48.53
2019-03-20T08:37:18.789Z,48.74
2019-03-20T08:38:22.274Z,48.82
2019-03-20T08:39:25.813Z,48.85
2019-03-20T08:40:29.348Z,48.92
2019-03-20T08:41:32.874Z,48.97
2019-03-20T08:42:36.399Z,48.90
2019-03-20T08:43:39.945Z,48.91
2019-03-20T08:44:43.449Z,48.98
2019-03-20T08:45:47.150Z,48.92
2019-03-20T08:46:50.633Z,48.84
2019-03-20T08:47:54.159Z,48.91
2019-03-20T08:48:57.681Z,48.91
2019-03-20T08:50:01.251Z,48.99
2019-03-20T08:51:04.811Z,48.96
2019-03-20T08:52:08.358Z,48.96
2019-03-20T08:53:11.972Z,48.96
2019-03-20T08:54:15.748Z,49.01
2019-03-20T08:55:20.556Z,49.08
2019-03-20T08:56:24.289Z,49.20
2019-03-20T08:57:27.855Z,49.27
2019-03-20T08:58:31.491Z,49.39
2019-03-20T08:59:35.024Z,49.43
2019-03-20T09:00:38.560Z,49.47
2019-03-20T09:01:42.071Z,49.49
2019-03-20T09:02:45.653Z,49.45
2019-03-20T09:03:49.179Z,49.48
2019-03-20T09:04:52.685Z,49.46
2019-03-20T09:05:56.229Z,49.44
2019-03-20T09:06:59.810Z,49.45
2019-03-20T09:08:03.309Z,49.49
2019-03-20T09:09:08.143Z,49.40
2019-03-20T09:10:16.983Z,49.38
2019-03-20T09:11:20.536Z,49.30
2019-03-20T09:12:24.033Z,49.32
2019-03-20T09:13:27.558Z,49.28
2019-03-20T09:14:31.037Z,49.33
2019-03-20T09:15:34.565Z,49.31
2019-03-20T09:16:38.143Z,49.47
2019-03-20T09:17:41.683Z,49.56
2019-03-20T09:18:45.186Z,49.77
2019-03-20T09:19:48.736Z,49.75
2019-03-20T09:20:52.405Z,49.68
2019-03-20T09:21:55.942Z,49.69
2019-03-20T09:22:59.497Z,49.64
2019-03-20T09:24:03.010Z,49.72
2019-03-20T09:25:09.629Z,49.71
2019-03-20T09:26:13.879Z,49.73
2019-03-20T09:27:17.651Z,49.78
2019-03-20T09:28:21.348Z,49.77
2019-03-20T09:29:35.354Z,49.79
2019-03-20T09:30:33.077Z,49.70
2019-03-20T09:31:36.553Z,49.65
2019-03-20T09:32:40.100Z,49.67
2019-03-20T09:33:43.621Z,49.66
2019-03-20T09:34:47.099Z,49.65
2019-03-20T09:35:50.628Z,49.79
2019-03-20T09:36:54.135Z,49.89
2019-03-20T09:37:57.731Z,49.95
2019-03-20T09:39:01.255Z,50.01
2019-03-20T09:40:07.611Z,50.07
2019-03-20T09:41:11.271Z,50.06
2019-03-20T09:42:14.907Z,50.01
2019-03-20T09:43:18.761Z,49.96
2019-03-20T09:44:22.267Z,49.93
2019-03-20T09:45:26.153Z,49.96
2019-03-20T09:46:29.764Z,49.93
2019-03-20T09:47:33.273Z,49.96
2019-03-20T09:48:36.887Z,49.96
2019-03-20T09:49:40.410Z,49.87
2019-03-20T09:50:44.154Z,49.80
2019-03-20T09:51:47.671Z,49.84
2019-03-20T09:52:51.326Z,49.82
2019-03-20T09:53:55.233Z,49.84
2019-03-20T09:54:58.758Z,49.79
2019-03-20T09:56:02.304Z,49.79
2019-03-20T09:57:05.868Z,49.86
2019-03-20T09:58:11.782Z,49.82
2019-03-20T09:59:14.576Z,49.90
2019-03-20T10:00:26.106Z,49.95
2019-03-20T10:01:29.699Z,49.97
2019-03-20T10:02:33.220Z,49.96
2019-03-20T10:03:36.728Z,49.89
2019-03-20T10:04:40.201Z,49.93
2019-03-20T10:05:43.719Z,49.93
2019-03-20T10:06:47.233Z,49.90
2019-03-20T10:07:51.418Z,49.92
2019-03-20T10:08:54.915Z,49.81
2019-03-20T10:09:58.449Z,49.90
2019-03-20T10:11:02.004Z,49.76
2019-03-20T10:12:05.745Z,49.71
2019-03-20T10:13:09.244Z,49.75
2019-03-20T10:14:12.751Z,49.78
2019-03-20T10:15:18.107Z,49.79
2019-03-20T10:16:21.581Z,49.79
2019-03-20T10:17:25.094Z,49.86
2019-03-20T10:18:28.613Z,49.87
2019-03-20T10:19:32.109Z,49.88
2019-03-20T10:20:35.621Z,49.99
2019-03-20T10:21:39.222Z,49.95
2019-03-20T10:22:42.797Z,50.02
2019-03-20T10:23:49.033Z,50.00
2019-03-20T10:24:52.507Z,49.97
2019-03-20T10:25:56.085Z,49.98
2019-03-20T10:26:59.629Z,49.95
2019-03-20T10:28:03.179Z,49.91
2019-03-20T10:29:06.770Z,49.91
2019-03-20T10:30:29.191Z,49.87
2019-03-20T10:31:34.832Z,49.83
2019-03-20T10:32:38.359Z,49.80
2019-03-20T10:33:41.889Z,49.85
2019-03-20T10:34:45.664Z,49.88
2019-03-20T10:35:50.507Z,49.91
2019-03-20T10:36:54.128Z,49.99
2019-03-20T10:37:57.679Z,50.04
2019-03-20T10:39:06.464Z,50.13
2019-03-20T10:40:12.269Z,50.13
2019-03-20T10:41:15.781Z,50.11
2019-03-20T10:42:19.237Z,50.09
2019-03-20T10:43:22.805Z,50.08
2019-03-20T10:44:26.293Z,50.11
2019-03-20T10:45:29.802Z,50.04
2019-03-20T10:46:33.311Z,50.01
2019-03-20T10:47:37.018Z,50.03
2019-03-20T10:48:40.610Z,50.00
2019-03-20T10:49:44.102Z,49.98
2019-03-20T10:50:47.601Z,49.95
2019-03-20T10:51:51.100Z,49.99
2019-03-20T10:52:54.694Z,50.02
2019-03-20T10:53:58.211Z,50.03
2019-03-20T10:55:01.727Z,50.09
2019-03-20T10:56:05.483Z,50.15
2019-03-20T10:57:09.012Z,50.16
2019-03-20T10:58:12.573Z,50.27
2019-03-20T10:59:16.048Z,50.28
2019-03-20T11:00:21.565Z,50.22
2019-03-20T11:01:25.161Z,50.20
2019-03-20T11:02:28.945Z,50.20
2019-03-20T11:03:32.516Z,50.21
2019-03-20T11:04:36.059Z,50.21
2019-03-20T11:05:39.569Z,50.17
2019-03-20T11:06:43.180Z,50.13
2019-03-20T11:07:46.994Z,50.15
2019-03-20T11:08:50.567Z,50.10
2019-03-20T11:09:54.048Z,50.08
2019-03-20T11:10:57.674Z,50.04
2019-03-20T11:12:03.022Z,50.25
2019-03-20T11:13:06.926Z,50.12
2019-03-20T11:14:10.392Z,50.17
2019-03-20T11:15:16.612Z,50.18
2019-03-20T11:16:20.536Z,50.22
2019-03-20T11:17:24.238Z,50.25
2019-03-20T11:18:27.787Z,50.17
2019-03-20T11:19:31.313Z,50.24
2019-03-20T11:20:34.896Z,50.24
2019-03-20T11:21:38.535Z,50.22
2019-03-20T11:22:42.111Z,50.24
2019-03-20T11:23:45.619Z,50.36
2019-03-20T11:24:58.242Z,50.23
2019-03-20T11:26:01.827Z,50.19
2019-03-20T11:27:05.383Z,50.42
2019-03-20T11:28:08.964Z,50.57
2019-03-20T11:29:12.629Z,50.79
2019-03-20T11:30:26.960Z,50.89
2019-03-20T11:31:32.417Z,50.90
2019-03-20T11:32:35.746Z,51.00
2019-03-20T11:33:40.340Z,50.92
2019-03-20T11:34:43.889Z,51.03
2019-03-20T11:35:47.455Z,51.06
2019-03-20T11:36:51.013Z,51.04
2019-03-20T11:37:54.572Z,51.06
2019-03-20T11:38:58.087Z,51.05
2019-03-20T11:40:01.581Z,51.07
2019-03-20T11:41:05.427Z,51.10
2019-03-20T11:42:09.070Z,51.15
2019-03-20T11:43:12.632Z,51.13
2019-03-20T11:44:16.136Z,51.10
2019-03-20T11:45:19.803Z,51.16
2019-03-20T11:46:23.372Z,51.14
2019-03-20T11:47:26.864Z,51.06
2019-03-20T11:48:30.461Z,51.04
2019-03-20T11:49:34.005Z,51.08
2019-03-20T11:50:41.931Z,51.11
2019-03-20T11:51:45.479Z,51.14
2019-03-20T11:52:49.117Z,51.15
2019-03-20T11:53:52.633Z,51.19
2019-03-20T11:54:56.258Z,51.17
2019-03-20T11:55:59.821Z,51.23
2019-03-20T11:57:03.363Z,51.26
2019-03-20T11:58:07.801Z,51.25
2019-03-20T11:59:11.605Z,51.29
2019-03-20T12:00:19.803Z,51.26
2019-03-20T12:01:23.365Z,51.30
2019-03-20T12:02:28.322Z,51.30
2019-03-20T12:03:32.165Z,51.30
2019-03-20T12:04:35.661Z,51.31
2019-03-20T12:05:39.318Z,51.26
2019-03-20T12:06:42.809Z,51.25
2019-03-20T12:07:46.384Z,51.30
2019-03-20T12:08:50.039Z,51.31
2019-03-20T12:09:53.552Z,51.24
2019-03-20T12:10:58.555Z,51.25
2019-03-20T12:12:02.205Z,51.25
2019-03-20T12:13:05.766Z,51.30
2019-03-20T12:14:09.320Z,51.34
2019-03-20T12:15:13.248Z,51.39
2019-03-20T12:16:16.823Z,51.46
2019-03-20T12:17:20.438Z,51.52
2019-03-20T12:18:23.955Z,51.49
2019-03-20T12:19:27.473Z,51.51
2019-03-20T12:20:31.088Z,51.50
2019-03-20T12:21:34.595Z,51.58
2019-03-20T12:22:38.393Z,51.58
2019-03-20T12:23:41.902Z,51.62
2019-03-20T12:24:45.427Z,51.63
2019-03-20T12:25:48.949Z,51.70
2019-03-20T12:26:52.451Z,51.74
2019-03-20T12:27:56.009Z,51.77
2019-03-20T12:28:59.512Z,51.83
2019-03-20T12:30:03.340Z,51.87
2019-03-20T12:31:07.238Z,51.89
2019-03-20T12:32:10.780Z,51.93
2019-03-20T12:33:14.518Z,51.96
2019-03-20T12:34:18.411Z,52.00
2019-03-20T12:35:22.638Z,52.02
2019-03-20T12:36:26.393Z,52.07
2019-03-20T12:37:29.958Z,52.06
2019-03-20T12:38:33.775Z,52.07
2019-03-20T12:39:38.355Z,52.08
2019-03-20T12:40:43.879Z,52.11
2019-03-20T12:41:47.502Z,52.08
2019-03-20T12:42:51.276Z,52.12
2019-03-20T12:43:54.916Z,52.13
2019-03-20T12:44:58.415Z,52.16
2019-03-20T12:46:01.972Z,52.15
2019-03-20T12:47:05.528Z,52.16
2019-03-20T12:48:14.312Z,52.14
2019-03-20T12:49:17.859Z,52.17
2019-03-20T12:50:21.522Z,52.17
2019-03-20T12:51:25.002Z,52.19
2019-03-20T12:52:28.496Z,52.21
2019-03-20T12:53:34.154Z,52.24
2019-03-20T12:54:37.655Z,52.28
2019-03-20T12:55:41.190Z,52.33
2019-03-20T12:56:44.705Z,52.35
2019-03-20T12:57:48.181Z,52.38
2019-03-20T12:58:51.684Z,52.41
2019-03-20T12:59:55.192Z,52.42
2019-03-20T13:00:58.825Z,52.40
2019-03-20T13:02:02.333Z,52.39
2019-03-20T13:03:05.966Z,52.40
2019-03-20T13:04:09.542Z,52.41
2019-03-20T13:05:14.783Z,52.41
2019-03-20T13:06:18.271Z,52.40
2019-03-20T13:07:21.765Z,52.40
2019-03-20T13:08:25.356Z,52.40
2019-03-20T13:09:29.026Z,52.34
2019-03-20T13:10:32.591Z,52.36
2019-03-20T13:11:36.226Z,52.38
2019-03-20T13:12:39.778Z,52.39
2019-03-20T13:13:44.801Z,52.47
2019-03-20T13:14:48.309Z,52.48
2019-03-20T13:15:51.865Z,52.47
2019-03-20T13:16:55.450Z,52.47
2019-03-20T13:17:58.940Z,52.52
2019-03-20T13:19:02.465Z,52.52
2019-03-20T13:20:13.175Z,52.52
2019-03-20T13:21:16.900Z,52.52
2019-03-20T13:22:20.462Z,52.51
2019-03-20T13:23:27.004Z,52.51
2019-03-20T13:24:30.617Z,52.57
2019-03-20T13:25:34.345Z,52.58
2019-03-20T13:26:37.867Z,52.53
2019-03-20T13:27:41.411Z,52.54
2019-03-20T13:28:45.156Z,52.53
2019-03-20T13:29:48.658Z,52.55
2019-03-20T13:31:12.498Z,52.52
2019-03-20T13:32:16.078Z,52.53
2019-03-20T13:33:25.653Z,52.50
2019-03-20T13:34:24.889Z,52.49
2019-03-20T13:35:28.581Z,52.46
2019-03-20T13:36:32.058Z,52.47
2019-03-20T13:37:35.584Z,52.52
2019-03-20T13:38:39.100Z,52.53
2019-03-20T13:39:42.769Z,52.53
2019-03-20T13:40:46.495Z,52.55
2019-03-20T13:41:50.150Z,52.61
2019-03-20T13:42:53.724Z,52.62
2019-03-20T13:43:57.348Z,52.64
2019-03-20T13:45:00.950Z,52.64